Terminal Aerodrome Forecast
Issued by NWS

Home | Current Version | Previous Version | Text Only | Print | Product List | Glossary On
Versions: 1 2 3 4 5 6 7 8 9 10 11 12 13 14 15 16 17 18
011
FTUS43 KDTX 290521
TAFDET
TAF
KDET 290521Z 2906/3006 24008KT P6SM SCT080
     FM291600 22015G24KT P6SM BKN060
     FM300000 24010KT P6SM SCT070=

USA.gov is the U.S. government's official web portal to all federal, state and local government web resources and services.